Time;durP1;ratioP1;P1;durP2;ratioP2;P2;SDS_P1;SDS_P2;PMS_P1;PMS_P2;Temp;Humidity;BMP_temperature;BMP_pressure;BME280_temperature;BME280_humidity;BME280_pressure;Samples;Min_cycle;Max_cycle;Signal;HPM_P1;HPM_P2
2022/12/18 00:00:19;;;;;;;22.90;9.70;;;;;;;;;;4977052;28;20141;-55
2022/12/18 00:02:44;;;;;;;22.60;13.38;;;;;;;;;;4977092;28;20044;-55
2022/12/18 00:05:10;;;;;;;16.95;10.05;;;;;;;;;;4982822;28;20064;-54
2022/12/18 00:07:35;;;;;;;18.92;9.55;;;;;;;;;;4973025;28;20526;-55
2022/12/18 00:10:00;;;;;;;17.70;8.20;;;;;;;;;;4978999;28;20105;-54
2022/12/18 00:12:25;;;;;;;4.38;3.63;;;;;;;;;;4979288;28;20058;-57
2022/12/18 00:14:51;;;;;;;12.90;7.22;;;;;;;;;;4981539;28;20030;-56
2022/12/18 00:17:16;;;;;;;18.33;8.98;;;;;;;;;;4975275;28;20022;-55
2022/12/18 00:19:41;;;;;;;15.05;7.82;;;;;;;;;;4978760;28;20054;-56
2022/12/18 00:22:06;;;;;;;13.38;7.63;;;;;;;;;;4981406;28;20035;-55
2022/12/18 00:24:31;;;;;;;10.90;6.22;;;;;;;;;;4971844;28;20377;-54
2022/12/18 00:26:57;;;;;;;13.82;8.50;;;;;;;;;;4978683;28;20680;-56
2022/12/18 00:29:22;;;;;;;11.15;6.55;;;;;;;;;;4976424;28;20479;-55
2022/12/18 00:31:47;;;;;;;14.30;7.03;;;;;;;;;;4977908;28;20081;-55
2022/12/18 00:34:13;;;;;;;16.60;9.65;;;;;;;;;;4979799;28;20405;-56
2022/12/18 00:36:38;;;;;;;16.67;8.88;;;;;;;;;;4956192;28;20046;-55
2022/12/18 00:39:04;;;;;;;17.17;8.30;;;;;;;;;;4977507;28;20027;-54
2022/12/18 00:44:13;;;;;;;12.50;8.43;;;;;;;;;;4983124;28;20132;-56
2022/12/18 00:46:38;;;;;;;25.73;10.68;;;;;;;;;;4976699;28;20373;-55
2022/12/18 00:49:04;;;;;;;13.63;7.78;;;;;;;;;;4977275;28;20404;-54
2022/12/18 00:51:29;;;;;;;18.42;8.95;;;;;;;;;;4973371;28;20110;-55
2022/12/18 00:53:54;;;;;;;25.45;8.57;;;;;;;;;;4974602;28;20033;-56
2022/12/18 00:56:19;;;;;;;15.65;8.75;;;;;;;;;;4979461;28;20074;-53
2022/12/18 00:58:45;;;;;;;14.90;8.40;;;;;;;;;;4975064;28;20035;-56
2022/12/18 01:01:10;;;;;;;14.63;6.80;;;;;;;;;;4975640;28;20175;-55
2022/12/18 01:03:35;;;;;;;16.27;7.63;;;;;;;;;;4973742;28;20124;-56
2022/12/18 01:06:10;;;;;;;20.70;8.07;;;;;;;;;;4975413;28;20125;-53
2022/12/18 01:08:35;;;;;;;13.85;8.23;;;;;;;;;;4972437;28;20117;-55
2022/12/18 01:11:01;;;;;;;13.65;8.40;;;;;;;;;;4967121;28;20176;-53
2022/12/18 01:13:26;;;;;;;11.10;6.88;;;;;;;;;;4961802;28;20033;-58
2022/12/18 01:15:51;;;;;;;14.88;8.75;;;;;;;;;;4973446;28;20026;-53
2022/12/18 01:18:17;;;;;;;25.83;8.82;;;;;;;;;;4974881;28;20030;-56
2022/12/18 01:20:42;;;;;;;20.85;7.88;;;;;;;;;;4958218;28;20027;-56
2022/12/18 01:23:07;;;;;;;12.95;7.88;;;;;;;;;;4975756;28;20054;-54
2022/12/18 01:25:32;;;;;;;12.90;6.72;;;;;;;;;;4975911;28;20027;-54
2022/12/18 01:27:58;;;;;;;12.90;6.63;;;;;;;;;;4975557;28;20807;-54
2022/12/18 01:30:23;;;;;;;8.13;5.03;;;;;;;;;;4969586;28;20113;-54
2022/12/18 01:32:48;;;;;;;11.05;6.15;;;;;;;;;;4971635;28;20038;-55
2022/12/18 01:35:13;;;;;;;9.38;6.72;;;;;;;;;;4981307;28;20037;-55
2022/12/18 01:37:39;;;;;;;9.93;7.97;;;;;;;;;;4970591;28;20034;-55
2022/12/18 01:40:04;;;;;;;8.65;5.97;;;;;;;;;;4982851;28;20076;-55
2022/12/18 01:42:29;;;;;;;10.65;7.25;;;;;;;;;;4974272;28;20031;-57
2022/12/18 01:44:58;;;;;;;12.27;6.20;;;;;;;;;;4977626;28;20039;-55
2022/12/18 01:47:24;;;;;;;10.50;5.50;;;;;;;;;;4975952;28;20109;-55
2022/12/18 01:49:50;;;;;;;9.60;5.65;;;;;;;;;;4974982;28;20065;-56
2022/12/18 01:52:15;;;;;;;12.30;7.10;;;;;;;;;;4964922;28;20484;-55
2022/12/18 01:54:40;;;;;;;11.55;5.57;;;;;;;;;;4974875;28;20041;-55
2022/12/18 01:57:05;;;;;;;11.32;6.38;;;;;;;;;;4977626;28;20105;-55
2022/12/18 01:59:31;;;;;;;11.68;6.15;;;;;;;;;;4981887;28;20053;-55
2022/12/18 02:01:56;;;;;;;8.60;5.90;;;;;;;;;;4964254;28;20026;-56
2022/12/18 02:04:22;;;;;;;9.10;6.50;;;;;;;;;;4970407;28;20030;-54
2022/12/18 02:06:49;;;;;;;10.07;5.75;;;;;;;;;;4977759;28;20066;-55
2022/12/18 02:09:18;;;;;;;8.45;5.13;;;;;;;;;;4973164;28;20026;-54
2022/12/18 02:11:53;;;;;;;7.83;4.87;;;;;;;;;;4964809;28;20112;-56
2022/12/18 02:14:44;;;;;;;8.65;5.40;;;;;;;;;;4958169;28;20773;-55
2022/12/18 02:17:11;;;;;;;5.18;4.03;;;;;;;;;;4940816;28;20038;-54
2022/12/18 02:19:43;;;;;;;8.85;5.30;;;;;;;;;;4972948;28;20495;-57
2022/12/18 02:22:11;;;;;;;12.50;6.75;;;;;;;;;;4950660;28;20033;-55
2022/12/18 02:24:51;;;;;;;3.70;3.25;;;;;;;;;;4976772;28;20130;-56
2022/12/18 02:27:17;;;;;;;8.80;6.22;;;;;;;;;;4954636;28;20026;-55
2022/12/18 02:29:50;;;;;;;6.13;4.80;;;;;;;;;;4960372;28;20093;-54
2022/12/18 02:32:17;;;;;;;9.88;5.05;;;;;;;;;;4961527;28;20035;-56
2022/12/18 02:34:42;;;;;;;7.70;5.28;;;;;;;;;;4974610;28;20027;-56
2022/12/18 02:37:09;;;;;;;11.20;5.93;;;;;;;;;;4973507;28;20370;-56
2022/12/18 02:39:35;;;;;;;12.88;6.03;;;;;;;;;;4966867;28;20520;-56
2022/12/18 02:42:07;;;;;;;7.18;4.47;;;;;;;;;;4962536;28;20122;-54
2022/12/18 02:44:32;;;;;;;9.02;5.47;;;;;;;;;;4971425;28;20034;-56
2022/12/18 02:46:57;;;;;;;7.35;5.28;;;;;;;;;;4973278;28;20427;-56
2022/12/18 02:49:23;;;;;;;8.25;5.18;;;;;;;;;;4980212;28;20121;-56
2022/12/18 02:52:08;;;;;;;9.70;4.93;;;;;;;;;;4972918;28;20050;-55
2022/12/18 02:54:36;;;;;;;8.32;4.63;;;;;;;;;;4963677;28;20030;-54
2022/12/18 02:57:09;;;;;;;13.25;7.43;;;;;;;;;;4973214;28;20408;-56
2022/12/18 02:59:38;;;;;;;9.30;5.47;;;;;;;;;;4951568;28;20555;-54
2022/12/18 03:02:15;;;;;;;6.20;4.32;;;;;;;;;;4948114;28;20033;-57
2022/12/18 03:04:47;;;;;;;10.70;5.15;;;;;;;;;;4974538;28;20027;-55
2022/12/18 03:07:15;;;;;;;8.68;5.88;;;;;;;;;;4961231;28;20033;-56
2022/12/18 03:09:41;;;;;;;10.50;6.70;;;;;;;;;;4973344;28;20022;-56
2022/12/18 03:12:24;;;;;;;7.78;6.40;;;;;;;;;;4967201;28;20022;-54
2022/12/18 03:14:58;;;;;;;8.40;5.38;;;;;;;;;;4974600;28;20029;-56
2022/12/18 03:17:23;;;;;;;8.55;6.75;;;;;;;;;;4949975;28;20022;-56
2022/12/18 03:19:48;;;;;;;12.35;7.47;;;;;;;;;;4962630;28;20034;-55
2022/12/18 03:22:13;;;;;;;10.70;6.50;;;;;;;;;;4972886;28;20030;-56
2022/12/18 03:24:39;;;;;;;5.55;4.65;;;;;;;;;;4951643;28;20400;-56
2022/12/18 03:27:05;;;;;;;9.80;7.40;;;;;;;;;;4955832;28;20507;-58
2022/12/18 03:29:34;;;;;;;12.98;6.93;;;;;;;;;;4961960;28;20656;-54
2022/12/18 03:32:04;;;;;;;10.50;5.78;;;;;;;;;;4961004;28;20412;-55
2022/12/18 03:34:30;;;;;;;9.60;5.63;;;;;;;;;;4960679;28;20019;-56
2022/12/18 03:36:55;;;;;;;14.50;7.57;;;;;;;;;;4979686;28;20034;-56
2022/12/18 03:39:20;;;;;;;16.23;6.88;;;;;;;;;;4972818;28;20042;-56
2022/12/18 03:41:52;;;;;;;13.13;5.80;;;;;;;;;;4944843;28;20109;-55
2022/12/18 03:44:28;;;;;;;9.45;6.18;;;;;;;;;;4975972;28;20041;-55
2022/12/18 03:46:56;;;;;;;14.07;6.60;;;;;;;;;;4968589;28;20073;-55
2022/12/18 03:49:26;;;;;;;16.48;6.00;;;;;;;;;;4976919;28;20113;-55
2022/12/18 03:51:57;;;;;;;11.70;7.10;;;;;;;;;;4972238;28;20022;-53
2022/12/18 03:54:22;;;;;;;12.70;7.57;;;;;;;;;;4968933;28;20097;-55
2022/12/18 03:56:48;;;;;;;14.38;7.72;;;;;;;;;;4972869;28;20034;-55
2022/12/18 03:59:13;;;;;;;14.48;6.95;;;;;;;;;;4962585;28;20054;-55
2022/12/18 04:01:39;;;;;;;9.60;7.68;;;;;;;;;;4963566;28;20065;-56
2022/12/18 04:04:05;;;;;;;7.10;4.13;;;;;;;;;;4965109;28;20077;-56
2022/12/18 04:06:30;;;;;;;13.85;7.55;;;;;;;;;;4953978;28;20031;-56
2022/12/18 04:08:56;;;;;;;13.25;7.10;;;;;;;;;;4970684;28;20098;-55
2022/12/18 04:11:21;;;;;;;15.57;7.53;;;;;;;;;;4975014;28;20033;-55
2022/12/18 04:13:46;;;;;;;15.65;8.00;;;;;;;;;;4981733;28;20041;-55
2022/12/18 04:16:12;;;;;;;11.20;7.40;;;;;;;;;;4982447;28;20018;-56
2022/12/18 04:18:37;;;;;;;10.25;6.05;;;;;;;;;;4975447;28;20041;-55
2022/12/18 04:21:02;;;;;;;17.20;7.60;;;;;;;;;;4977080;28;20026;-56
2022/12/18 04:23:28;;;;;;;10.23;5.60;;;;;;;;;;4980326;28;20082;-56
2022/12/18 04:25:53;;;;;;;13.35;7.88;;;;;;;;;;4972470;28;20055;-56
2022/12/18 04:28:18;;;;;;;17.55;8.07;;;;;;;;;;4978308;28;20018;-56
2022/12/18 04:30:43;;;;;;;11.02;6.88;;;;;;;;;;4973065;28;20035;-56
2022/12/18 04:33:12;;;;;;;17.10;7.88;;;;;;;;;;4975056;28;20432;-53
2022/12/18 04:35:37;;;;;;;14.27;5.72;;;;;;;;;;4978611;28;20081;-56
2022/12/18 04:38:02;;;;;;;12.60;7.25;;;;;;;;;;4972089;28;20023;-56
2022/12/18 04:40:28;;;;;;;22.40;8.35;;;;;;;;;;4972086;28;20427;-55
2022/12/18 04:42:53;;;;;;;17.05;10.10;;;;;;;;;;4977334;28;20027;-56
2022/12/18 04:45:18;;;;;;;12.85;6.68;;;;;;;;;;4974735;28;20038;-56
2022/12/18 04:47:43;;;;;;;12.68;8.55;;;;;;;;;;4976685;28;20029;-56
2022/12/18 04:50:09;;;;;;;14.13;8.20;;;;;;;;;;4979215;28;20073;-56
2022/12/18 04:52:34;;;;;;;16.85;8.15;;;;;;;;;;4977229;28;20048;-55
2022/12/18 04:54:59;;;;;;;12.10;6.10;;;;;;;;;;4979588;28;20101;-54
2022/12/18 04:57:24;;;;;;;13.70;6.90;;;;;;;;;;4979798;28;20066;-56
2022/12/18 04:59:50;;;;;;;14.57;8.27;;;;;;;;;;4975164;28;20253;-57
2022/12/18 05:02:15;;;;;;;15.13;9.20;;;;;;;;;;4969788;28;20045;-55
2022/12/18 05:04:40;;;;;;;12.77;7.57;;;;;;;;;;4980299;28;20038;-56
2022/12/18 05:07:05;;;;;;;10.68;7.65;;;;;;;;;;4971370;28;20042;-55
2022/12/18 05:09:30;;;;;;;17.27;7.82;;;;;;;;;;4978768;28;20042;-55
2022/12/18 05:11:56;;;;;;;12.55;7.43;;;;;;;;;;4976458;28;20076;-55
2022/12/18 05:14:21;;;;;;;16.20;8.50;;;;;;;;;;4976184;28;20049;-56
2022/12/18 05:16:46;;;;;;;13.40;7.40;;;;;;;;;;4955480;28;20129;-56
2022/12/18 05:19:12;;;;;;;12.23;5.70;;;;;;;;;;4975206;28;20226;-56
2022/12/18 05:21:37;;;;;;;11.40;6.18;;;;;;;;;;4979364;28;20023;-53
2022/12/18 05:24:02;;;;;;;21.17;8.40;;;;;;;;;;4971448;28;20054;-55
2022/12/18 05:26:28;;;;;;;14.18;8.75;;;;;;;;;;4975996;28;20106;-54
2022/12/18 05:28:53;;;;;;;16.05;7.65;;;;;;;;;;4977319;28;20045;-56
2022/12/18 05:31:18;;;;;;;7.32;5.40;;;;;;;;;;4975167;28;20026;-55
2022/12/18 05:33:43;;;;;;;13.75;5.30;;;;;;;;;;4980082;28;20037;-56
2022/12/18 05:36:09;;;;;;;14.70;7.28;;;;;;;;;;4976050;28;20693;-55
2022/12/18 05:38:35;;;;;;;13.15;7.60;;;;;;;;;;4972931;28;20038;-56
2022/12/18 05:41:00;;;;;;;20.38;8.43;;;;;;;;;;4963882;28;20595;-57
2022/12/18 05:43:25;;;;;;;11.75;6.03;;;;;;;;;;4977728;28;20484;-53
2022/12/18 05:45:51;;;;;;;17.45;9.77;;;;;;;;;;4969598;28;20018;-56
2022/12/18 05:48:16;;;;;;;17.13;8.80;;;;;;;;;;4962527;28;20057;-55
2022/12/18 05:50:42;;;;;;;15.45;7.05;;;;;;;;;;4977182;28;20105;-57
2022/12/18 05:53:07;;;;;;;11.88;7.47;;;;;;;;;;4962227;28;20397;-55
2022/12/18 05:55:33;;;;;;;15.57;6.78;;;;;;;;;;4980634;28;20026;-55
2022/12/18 05:57:58;;;;;;;17.00;7.63;;;;;;;;;;4980980;28;20751;-56
2022/12/18 06:00:24;;;;;;;16.73;8.10;;;;;;;;;;4974658;28;20023;-59
2022/12/18 06:02:49;;;;;;;13.52;9.60;;;;;;;;;;4976637;28;20026;-54
2022/12/18 06:05:15;;;;;;;14.77;8.57;;;;;;;;;;4963491;28;20037;-57
2022/12/18 06:07:40;;;;;;;23.45;8.90;;;;;;;;;;4976786;28;20476;-56
2022/12/18 06:10:05;;;;;;;14.52;9.55;;;;;;;;;;4979101;28;20117;-56
2022/12/18 06:12:33;;;;;;;18.05;8.38;;;;;;;;;;4980401;28;20290;-57
2022/12/18 06:14:58;;;;;;;15.82;8.95;;;;;;;;;;4982489;28;20034;-57
2022/12/18 06:17:27;;;;;;;19.73;10.60;;;;;;;;;;4978790;28;20077;-56
2022/12/18 06:19:52;;;;;;;14.45;7.85;;;;;;;;;;4975857;28;20041;-55
2022/12/18 06:22:17;;;;;;;15.23;8.25;;;;;;;;;;4972685;28;20027;-56
2022/12/18 06:24:42;;;;;;;17.05;8.20;;;;;;;;;;4978633;28;20058;-55
2022/12/18 06:27:07;;;;;;;18.60;8.75;;;;;;;;;;4975960;28;20113;-55
2022/12/18 06:29:33;;;;;;;8.95;6.10;;;;;;;;;;4976157;28;20057;-56
2022/12/18 06:31:58;;;;;;;22.48;8.45;;;;;;;;;;4968610;28;20019;-55
2022/12/18 06:34:23;;;;;;;20.75;10.60;;;;;;;;;;4953961;28;20015;-53
2022/12/18 06:36:49;;;;;;;21.88;9.93;;;;;;;;;;4965682;28;20421;-54
2022/12/18 06:39:14;;;;;;;24.52;10.18;;;;;;;;;;4977795;28;20025;-55
2022/12/18 06:41:39;;;;;;;17.17;7.95;;;;;;;;;;4975572;28;20031;-55
2022/12/18 06:44:05;;;;;;;17.10;10.18;;;;;;;;;;4977349;28;20031;-54
2022/12/18 06:46:32;;;;;;;12.77;8.48;;;;;;;;;;4973863;28;20432;-54
2022/12/18 06:48:57;;;;;;;16.55;9.73;;;;;;;;;;4972502;28;20034;-56
2022/12/18 06:51:22;;;;;;;19.65;8.50;;;;;;;;;;4971967;28;20034;-55
2022/12/18 06:53:48;;;;;;;23.77;10.32;;;;;;;;;;4976834;28;20035;-56
2022/12/18 06:56:13;;;;;;;18.33;10.63;;;;;;;;;;4971140;28;20042;-55
2022/12/18 06:58:38;;;;;;;17.45;9.65;;;;;;;;;;4977494;28;20029;-55
2022/12/18 07:01:04;;;;;;;20.70;9.85;;;;;;;;;;4978359;28;20092;-55
2022/12/18 07:03:30;;;;;;;20.52;11.15;;;;;;;;;;4972158;28;20537;-55
2022/12/18 07:05:55;;;;;;;21.15;10.45;;;;;;;;;;4971723;28;20033;-54
2022/12/18 07:08:20;;;;;;;28.25;13.60;;;;;;;;;;4971357;28;20026;-52
2022/12/18 07:10:46;;;;;;;20.23;11.35;;;;;;;;;;4977975;28;20445;-55
2022/12/18 07:13:11;;;;;;;16.45;9.85;;;;;;;;;;4976039;28;20031;-54
2022/12/18 07:15:36;;;;;;;20.75;11.48;;;;;;;;;;4974558;28;20026;-56
2022/12/18 07:18:02;;;;;;;23.10;10.10;;;;;;;;;;4978933;28;20508;-55
2022/12/18 07:20:27;;;;;;;17.75;10.35;;;;;;;;;;4978170;28;20365;-56
2022/12/18 07:22:52;;;;;;;19.35;7.97;;;;;;;;;;4974423;28;20042;-54
2022/12/18 07:25:17;;;;;;;18.08;8.75;;;;;;;;;;4974457;28;20043;-55
2022/12/18 07:27:43;;;;;;;23.33;10.90;;;;;;;;;;4976746;28;20120;-54
2022/12/18 07:30:17;;;;;;;17.13;9.95;;;;;;;;;;4984477;28;20041;-57
2022/12/18 07:32:42;;;;;;;17.02;8.15;;;;;;;;;;4984228;28;20022;-55
2022/12/18 07:35:08;;;;;;;20.13;9.18;;;;;;;;;;4973641;28;20038;-56
2022/12/18 07:37:33;;;;;;;15.40;9.23;;;;;;;;;;4985521;28;20520;-56
2022/12/18 07:39:58;;;;;;;16.52;9.07;;;;;;;;;;4984214;28;20035;-56
2022/12/18 07:42:30;;;;;;;24.48;12.63;;;;;;;;;;4983080;28;20022;-56
2022/12/18 07:44:55;;;;;;;18.38;9.25;;;;;;;;;;4982748;28;20039;-56
2022/12/18 07:47:20;;;;;;;13.73;8.32;;;;;;;;;;4967016;28;20030;-56
2022/12/18 07:49:46;;;;;;;17.85;10.23;;;;;;;;;;4971058;28;20034;-55
2022/12/18 07:52:12;;;;;;;27.10;13.30;;;;;;;;;;4974104;28;20030;-57
2022/12/18 07:54:37;;;;;;;24.70;12.68;;;;;;;;;;4970859;28;20444;-53
2022/12/18 07:57:02;;;;;;;21.15;9.95;;;;;;;;;;4977363;28;20050;-53
2022/12/18 07:59:28;;;;;;;18.20;10.75;;;;;;;;;;4967890;28;20034;-55
2022/12/18 08:01:53;;;;;;;17.10;11.55;;;;;;;;;;4976491;28;20110;-55
2022/12/18 08:04:18;;;;;;;21.52;12.35;;;;;;;;;;4975248;28;20030;-55
2022/12/18 08:06:43;;;;;;;24.40;13.27;;;;;;;;;;4971889;28;20440;-54
2022/12/18 08:09:09;;;;;;;20.77;11.50;;;;;;;;;;4968430;28;20034;-54
2022/12/18 08:11:34;;;;;;;24.08;12.90;;;;;;;;;;4972266;28;20023;-56
2022/12/18 08:13:59;;;;;;;23.23;12.35;;;;;;;;;;4963133;28;20318;-56
2022/12/18 08:16:25;;;;;;;27.60;16.38;;;;;;;;;;4971324;28;20557;-56
2022/12/18 08:18:51;;;;;;;23.90;11.40;;;;;;;;;;4974796;28;20492;-55
2022/12/18 08:21:22;;;;;;;25.23;15.15;;;;;;;;;;4974359;28;20034;-56
2022/12/18 08:23:47;;;;;;;24.40;13.73;;;;;;;;;;4977005;28;20050;-55
2022/12/18 08:26:13;;;;;;;32.35;17.35;;;;;;;;;;4976496;28;20026;-56
2022/12/18 08:28:38;;;;;;;33.17;15.20;;;;;;;;;;4974144;28;20491;-56
2022/12/18 08:31:03;;;;;;;24.55;13.45;;;;;;;;;;4974805;28;20094;-56
2022/12/18 08:33:29;;;;;;;29.23;17.05;;;;;;;;;;4977968;28;20042;-56
2022/12/18 08:35:54;;;;;;;33.30;16.50;;;;;;;;;;4972738;28;20476;-58
2022/12/18 08:38:19;;;;;;;29.90;16.98;;;;;;;;;;4974945;28;20038;-56
2022/12/18 08:40:44;;;;;;;41.45;19.38;;;;;;;;;;4971658;28;20018;-55
2022/12/18 08:45:53;;;;;;;29.73;16.83;;;;;;;;;;4975708;28;20177;-56
2022/12/18 08:48:18;;;;;;;49.38;24.05;;;;;;;;;;4968584;28;20331;-56
2022/12/18 08:50:44;;;;;;;40.30;20.20;;;;;;;;;;4961791;28;20149;-56
2022/12/18 08:53:09;;;;;;;43.45;19.58;;;;;;;;;;4956509;28;20061;-56
2022/12/18 08:55:34;;;;;;;55.80;24.27;;;;;;;;;;4976715;28;20464;-56
2022/12/18 08:57:59;;;;;;;55.13;29.52;;;;;;;;;;4977243;28;20318;-56
2022/12/18 09:00:25;;;;;;;54.50;25.30;;;;;;;;;;4977928;28;20037;-56
2022/12/18 09:02:50;;;;;;;66.60;34.25;;;;;;;;;;4979047;28;20354;-56
2022/12/18 09:05:15;;;;;;;56.85;31.85;;;;;;;;;;4978354;28;20026;-55
2022/12/18 09:07:41;;;;;;;78.90;36.22;;;;;;;;;;4975553;28;20640;-56
2022/12/18 09:10:06;;;;;;;62.35;32.70;;;;;;;;;;4977284;28;20542;-57
2022/12/18 09:12:37;;;;;;;65.50;35.92;;;;;;;;;;4977305;28;20030;-57
2022/12/18 09:15:02;;;;;;;;;;;;;;;;;;4979371;28;20069;-53
2022/12/18 09:17:27;;;;;;;57.00;26.05;;;;;;;;;;4973586;28;19913;-54
2022/12/18 09:19:52;;;;;;;54.60;31.13;;;;;;;;;;4973101;28;20287;-56
2022/12/18 09:22:18;;;;;;;48.72;24.95;;;;;;;;;;4972331;28;20034;-54
2022/12/18 09:24:43;;;;;;;52.72;29.98;;;;;;;;;;4976192;28;20042;-55
2022/12/18 09:27:08;;;;;;;60.72;32.35;;;;;;;;;;4972219;28;20061;-55
2022/12/18 09:29:34;;;;;;;72.40;34.65;;;;;;;;;;4972876;28;20381;-55
2022/12/18 09:31:59;;;;;;;62.00;31.90;;;;;;;;;;4979191;28;20039;-52
2022/12/18 09:34:24;;;;;;;66.07;32.25;;;;;;;;;;4978995;28;20118;-55
2022/12/18 09:36:50;;;;;;;63.50;31.75;;;;;;;;;;4961471;28;20484;-55
2022/12/18 09:39:15;;;;;;;53.50;28.00;;;;;;;;;;4977967;28;20026;-55
2022/12/18 09:41:45;;;;;;;56.95;27.42;;;;;;;;;;4973924;28;20651;-55
2022/12/18 09:44:16;;;;;;;54.67;30.23;;;;;;;;;;4962572;28;20048;-54
2022/12/18 09:46:41;;;;;;;;;;;;;;;;;;4973789;28;20580;-53
2022/12/18 09:49:07;;;;;;;51.88;28.08;;;;;;;;;;4973199;28;20284;-55
2022/12/18 09:51:46;;;;;;;52.03;28.85;;;;;;;;;;4952127;28;20288;-54
2022/12/18 09:54:12;;;;;;;53.20;28.92;;;;;;;;;;4982949;28;20030;-53
2022/12/18 09:56:40;;;;;;;63.75;31.05;;;;;;;;;;4975033;28;20054;-54
2022/12/18 09:59:05;;;;;;;54.90;28.05;;;;;;;;;;4962278;28;20117;-53
2022/12/18 10:01:31;;;;;;;59.03;28.77;;;;;;;;;;4976214;28;20595;-54
2022/12/18 10:03:56;;;;;;;52.42;26.30;;;;;;;;;;4978701;28;20034;-54
2022/12/18 10:06:27;;;;;;;47.83;23.65;;;;;;;;;;4980301;28;20035;-55
2022/12/18 10:09:01;;;;;;;81.68;35.47;;;;;;;;;;4975156;28;20033;-55
2022/12/18 10:11:39;;;;;;;55.17;26.92;;;;;;;;;;4975938;28;20100;-54
2022/12/18 10:14:11;;;;;;;39.10;19.83;;;;;;;;;;4959760;28;20046;-52
2022/12/18 10:16:40;;;;;;;35.10;19.02;;;;;;;;;;4974434;28;20030;-54
2022/12/18 10:19:22;;;;;;;34.08;18.05;;;;;;;;;;4952961;28;20443;-55
2022/12/18 10:21:56;;;;;;;38.28;18.75;;;;;;;;;;4966049;28;20027;-55
2022/12/18 10:24:33;;;;;;;43.63;21.30;;;;;;;;;;4973162;28;20055;-55
2022/12/18 10:27:11;;;;;;;47.97;21.52;;;;;;;;;;4960724;28;20023;-54
2022/12/18 10:29:36;;;;;;;49.33;23.63;;;;;;;;;;4968202;28;20041;-54
2022/12/18 10:32:01;;;;;;;53.47;26.17;;;;;;;;;;4953484;28;20031;-53
2022/12/18 10:34:26;;;;;;;38.72;19.38;;;;;;;;;;4957208;28;20034;-52
2022/12/18 10:36:52;;;;;;;29.42;14.65;;;;;;;;;;4979401;28;20349;-54
2022/12/18 10:39:30;;;;;;;26.52;13.45;;;;;;;;;;4971478;28;20033;-53
2022/12/18 10:42:09;;;;;;;27.90;13.82;;;;;;;;;;4973476;28;20038;-54
2022/12/18 10:44:34;;;;;;;25.95;13.45;;;;;;;;;;4959245;28;20125;-54
2022/12/18 10:47:03;;;;;;;28.05;12.70;;;;;;;;;;4977344;28;20164;-55
2022/12/18 10:49:31;;;;;;;23.35;13.23;;;;;;;;;;4972531;28;20030;-54
2022/12/18 10:52:17;;;;;;;27.52;12.65;;;;;;;;;;4950557;28;20073;-54
2022/12/18 10:54:52;;;;;;;29.42;14.27;;;;;;;;;;4975272;28;20532;-53
2022/12/18 10:57:37;;;;;;;26.33;13.43;;;;;;;;;;4956234;28;20030;-54
2022/12/18 11:00:21;;;;;;;27.13;14.07;;;;;;;;;;4975787;28;20556;-54
2022/12/18 11:02:47;;;;;;;27.50;14.27;;;;;;;;;;4966283;28;20741;-55
2022/12/18 11:05:25;;;;;;;23.35;13.50;;;;;;;;;;4958109;28;20031;-54
2022/12/18 11:07:51;;;;;;;30.67;13.60;;;;;;;;;;4972698;28;20034;-56
2022/12/18 11:10:17;;;;;;;29.27;15.23;;;;;;;;;;4975689;28;20440;-56
2022/12/18 11:12:42;;;;;;;32.92;14.15;;;;;;;;;;4972286;28;20033;-52
2022/12/18 11:15:13;;;;;;;29.77;16.10;;;;;;;;;;4973946;28;20026;-53
2022/12/18 11:17:39;;;;;;;28.08;14.73;;;;;;;;;;4963175;28;20026;-54
2022/12/18 11:20:06;;;;;;;29.42;14.43;;;;;;;;;;4960841;28;20034;-53
2022/12/18 11:22:32;;;;;;;29.77;14.02;;;;;;;;;;4973809;28;20136;-54
2022/12/18 11:25:05;;;;;;;27.17;14.68;;;;;;;;;;4956359;28;20505;-54
2022/12/18 11:27:30;;;;;;;30.80;16.35;;;;;;;;;;4965947;28;20034;-53
2022/12/18 11:30:14;;;;;;;27.35;14.02;;;;;;;;;;4945741;28;20031;-54
2022/12/18 11:32:41;;;;;;;29.50;15.07;;;;;;;;;;4961197;28;20275;-53
2022/12/18 11:35:09;;;;;;;32.80;15.48;;;;;;;;;;4976628;28;20034;-56
2022/12/18 11:37:34;;;;;;;31.27;16.02;;;;;;;;;;4973110;28;20252;-56
2022/12/18 11:40:01;;;;;;;37.15;18.85;;;;;;;;;;4972750;28;20031;-54
2022/12/18 11:42:35;;;;;;;36.33;17.40;;;;;;;;;;4951380;28;20027;-54
2022/12/18 11:45:13;;;;;;;42.15;19.02;;;;;;;;;;4972567;28;20066;-54
2022/12/18 11:47:43;;;;;;;37.92;19.15;;;;;;;;;;4955997;28;20033;-54
2022/12/18 11:50:08;;;;;;;;;;;;;;;;;;4974645;28;20370;-55
2022/12/18 11:52:36;;;;;;;34.60;17.98;;;;;;;;;;4972679;28;19944;-54
2022/12/18 11:55:21;;;;;;;38.80;19.27;;;;;;;;;;4963164;28;20276;-56
2022/12/18 11:57:55;;;;;;;44.10;21.00;;;;;;;;;;4979770;28;20014;-55
2022/12/18 12:00:20;;;;;;;39.97;20.52;;;;;;;;;;4970335;28;20233;-56
2022/12/18 12:03:04;;;;;;;39.80;20.38;;;;;;;;;;4960222;28;20468;-55
2022/12/18 12:05:38;;;;;;;45.95;22.08;;;;;;;;;;4979799;28;20031;-55
2022/12/18 12:08:06;;;;;;;37.65;19.20;;;;;;;;;;4977475;28;20054;-55
2022/12/18 12:10:50;;;;;;;41.05;19.75;;;;;;;;;;4971596;28;20030;-55
2022/12/18 12:13:33;;;;;;;34.58;17.98;;;;;;;;;;4981554;28;20625;-56
2022/12/18 12:16:02;;;;;;;29.42;16.58;;;;;;;;;;4972741;28;20042;-55
2022/12/18 12:18:47;;;;;;;32.88;15.35;;;;;;;;;;4954110;28;20487;-56
2022/12/18 12:21:21;;;;;;;25.88;14.07;;;;;;;;;;4971292;28;20505;-56
2022/12/18 12:24:05;;;;;;;34.83;18.20;;;;;;;;;;4966849;28;20077;-56
2022/12/18 12:26:36;;;;;;;30.48;14.98;;;;;;;;;;4970229;28;20022;-57
2022/12/18 12:29:12;;;;;;;26.90;12.82;;;;;;;;;;4977434;28;20057;-56
2022/12/18 12:31:37;;;;;;;33.75;15.90;;;;;;;;;;4960704;28;20410;-55
2022/12/18 12:34:17;;;;;;;18.17;10.35;;;;;;;;;;4981400;28;20022;-55
2022/12/18 12:36:54;;;;;;;34.50;18.08;;;;;;;;;;4963235;28;20029;-54
2022/12/18 12:39:23;;;;;;;35.72;17.83;;;;;;;;;;4975630;28;20030;-55
2022/12/18 12:44:40;;;;;;;40.72;21.52;;;;;;;;;;4964826;28;20168;-56
2022/12/18 12:47:26;;;;;;;29.80;14.90;;;;;;;;;;4975856;28;20022;-55
2022/12/18 12:49:51;;;;;;;35.67;15.82;;;;;;;;;;4975389;28;20039;-54
2022/12/18 12:52:28;;;;;;;33.60;16.80;;;;;;;;;;4978456;28;20465;-55
2022/12/18 12:54:54;;;;;;;34.92;16.13;;;;;;;;;;4956213;28;20033;-55
2022/12/18 12:57:23;;;;;;;21.02;11.35;;;;;;;;;;4969643;28;20399;-54
2022/12/18 12:59:58;;;;;;;29.05;16.38;;;;;;;;;;4977468;28;20030;-54
2022/12/18 13:02:41;;;;;;;31.48;15.90;;;;;;;;;;4974418;28;20023;-55
2022/12/18 13:05:25;;;;;;;36.65;17.33;;;;;;;;;;4977005;28;20511;-56
2022/12/18 13:08:03;;;;;;;33.67;16.50;;;;;;;;;;4976010;28;20130;-55
2022/12/18 13:10:38;;;;;;;40.88;18.33;;;;;;;;;;4965893;28;20034;-55
2022/12/18 13:13:04;;;;;;;31.83;16.75;;;;;;;;;;4975730;28;20034;-54
2022/12/18 13:15:32;;;;;;;38.75;19.48;;;;;;;;;;4971287;28;20014;-55
2022/12/18 13:18:10;;;;;;;43.40;22.77;;;;;;;;;;4973315;28;20050;-54
2022/12/18 13:20:42;;;;;;;38.20;20.23;;;;;;;;;;4970354;28;20217;-55
2022/12/18 13:23:22;;;;;;;40.55;18.83;;;;;;;;;;4959927;28;20046;-53
2022/12/18 13:25:48;;;;;;;31.80;15.90;;;;;;;;;;4965356;28;20044;-55
2022/12/18 13:28:24;;;;;;;32.83;16.52;;;;;;;;;;4976786;28;20045;-54
2022/12/18 13:30:49;;;;;;;46.00;20.15;;;;;;;;;;4975157;28;20018;-53
2022/12/18 13:33:17;;;;;;;45.20;20.92;;;;;;;;;;4978600;28;20018;-55
2022/12/18 13:35:45;;;;;;;47.05;22.63;;;;;;;;;;4970705;28;20030;-55
2022/12/18 13:38:20;;;;;;;39.75;20.38;;;;;;;;;;4979445;28;20057;-54
2022/12/18 13:40:48;;;;;;;39.83;18.75;;;;;;;;;;4977314;28;20037;-56
2022/12/18 13:43:19;;;;;;;44.83;20.67;;;;;;;;;;4974767;28;20600;-53
2022/12/18 13:45:45;;;;;;;43.88;19.85;;;;;;;;;;4976948;28;20054;-54
2022/12/18 13:48:21;;;;;;;38.30;18.13;;;;;;;;;;4937412;28;20030;-55
2022/12/18 13:50:59;;;;;;;37.85;17.70;;;;;;;;;;4972526;28;21437;-57
2022/12/18 13:53:26;;;;;;;38.88;20.05;;;;;;;;;;4960787;28;20721;-55
2022/12/18 13:55:51;;;;;;;37.40;17.77;;;;;;;;;;4956475;28;20166;-55
2022/12/18 13:58:16;;;;;;;26.70;13.65;;;;;;;;;;4964485;28;20112;-56
2022/12/18 14:00:42;;;;;;;47.10;19.42;;;;;;;;;;4976919;28;20391;-55
2022/12/18 14:03:23;;;;;;;42.75;18.65;;;;;;;;;;4973734;28;20045;-54
2022/12/18 14:05:52;;;;;;;38.35;18.15;;;;;;;;;;4976337;28;20515;-54
2022/12/18 14:08:18;;;;;;;40.47;19.05;;;;;;;;;;4973206;28;20436;-54
2022/12/18 14:10:47;;;;;;;42.08;18.73;;;;;;;;;;4957916;28;20046;-54
2022/12/18 14:13:15;;;;;;;37.13;18.20;;;;;;;;;;4958082;28;20038;-54
2022/12/18 14:15:40;;;;;;;36.17;17.48;;;;;;;;;;4963373;28;20097;-53
2022/12/18 14:18:08;;;;;;;40.67;17.70;;;;;;;;;;4976280;28;20046;-53
2022/12/18 14:20:34;;;;;;;37.95;16.95;;;;;;;;;;4976982;28;20404;-50
2022/12/18 14:23:00;;;;;;;36.58;18.30;;;;;;;;;;4956976;28;20042;-54
2022/12/18 14:25:26;;;;;;;40.47;18.75;;;;;;;;;;4974793;28;20042;-55
2022/12/18 14:27:51;;;;;;;46.03;21.10;;;;;;;;;;4970692;28;20056;-54
2022/12/18 14:30:26;;;;;;;46.45;21.52;;;;;;;;;;4969468;28;20102;-54
2022/12/18 14:33:01;;;;;;;43.20;20.98;;;;;;;;;;4976876;28;20500;-55
2022/12/18 14:35:26;;;;;;;53.35;21.58;;;;;;;;;;4972956;28;20081;-55
2022/12/18 14:37:52;;;;;;;49.50;20.33;;;;;;;;;;4974887;28;20121;-53